Almo, Idaho
Current Conditions -  °F | °C
As of 2:53 AM on Monday 20 Oct 2014 (Local Time) from KBYI Reporting Station
Clear Clear  
Wind Chill: 40°   Ceiling: Unl
Heat Index: 45°   Visibility: 10mi
Dew Point: 35°   Wind: 9mph
Humidity: 68%   Direction: 60°ENE
Pressure: 29.98"   Gusts: NA
Location:  42.1°N, 113.64°W
Report Text: KBYI 200853Z AUTO 06008KT 10SM CLR 07/02 A2998 RMK AO2 SLP122 T00720017 56001
Loading
Personal Weather Stations






























Interactive Weather Map
Tropical Storm Tracking
New forecast layout! Learn more

10-Day Weather Forecast

Advertisements
Track Severe Weather on mobile